Flight Track Log - Related Links

Times and Time Zones

All times are in EDT time to prevent confusion due to time zone crossing. See the UAL5900 flight status page for this flight to view local times or setup timezone preferences in your user account.

Time Position Orientation Groundspeed Altitude Reporting Facility
EDT Latitude Longitude Course Direction KTS MPH feet Rate Location/Type
Wed 06:27:59 PM 41.9167 -87.9000 186° South 176 203 3,300  Level Chicago TRACON
Wed 06:29:05 PM 41.8500 -87.9000 180° South 222 255 5,100 1,570 Climbing Chicago TRACON
Wed 06:29:46 PM 41.8089 -87.8975 177° South 218 251 6,100 1,689 Climbing Chicago Center
Wed 06:30:48 PM 41.7350 -87.8939 178° South 255 293 8,000 1,839 Climbing Chicago Center
Wed 06:31:50 PM 41.6539 -87.8892 178° South 286 329 9,900 1,935 Climbing Chicago Center
Wed 06:32:52 PM 41.5694 -87.8858 178° South 300 345 12,000 1,645 Climbing Chicago Center
Wed 06:33:00 PM 41.3893 -87.7726 186° South  Level Estimated
Wed 06:33:54 PM 41.4636 -87.8803 178° South 314 361 13,300  Level Chicago Center
Wed 06:34:56 PM 41.3636 -87.8819 181° South 347 399 14,100 1,065 Climbing Chicago Center
Wed 06:35:58 PM 41.2636 -87.8919 184° South 355 409 15,500 1,210 Climbing Chicago Center
Wed 06:37:00 PM 41.1617 -87.8911 180° South 361 415 16,600 1,065 Climbing Chicago Center
Wed 06:38:02 PM 41.0578 -87.8872 178° South 370 426 17,700 919 Climbing Chicago Center
Wed 06:39:04 PM 40.9533 -87.8825 178° South 375 432 18,500 912 Climbing Chicago Center
Wed 06:40:07 PM 40.8467 -87.8789 179° South 381 438 19,600 1,152 Climbing Chicago Center
Wed 06:41:09 PM 40.7167 -87.8758 179° South 390 449 20,900 1,065 Climbing Chicago Center
Wed 06:42:11 PM 40.6072 -87.8719 178° South 394 453 21,800 968 Climbing Chicago Center
Wed 06:43:13 PM 40.4975 -87.8692 179° South 396 456 22,900 1,016 Climbing Chicago Center
Wed 06:44:15 PM 40.3883 -87.8656 179° South 393 452 23,900 1,000 Climbing Chicago Center
Wed 06:44:55 PM 40.3097 -87.8636 179° South 391 450 24,600 1,000 Climbing Indianapolis Center
Wed 06:45:57 PM 40.1994 -87.8456 173° South 395 455 25,600 968 Climbing Indianapolis Center
Wed 06:46:59 PM 40.0914 -87.8222 171° South 394 453 26,600 677 Climbing Indianapolis Center
Wed 06:48:01 PM 39.9656 -87.7961 171° South 392 451 27,000 194 Climbing Indianapolis Center
Wed 06:49:03 PM 39.8536 -87.7700 170° South 402 463 27,000  Level Indianapolis Center
Wed 06:50:05 PM 39.7378 -87.7467 171° South 414 476 27,000  Level Indianapolis Center
Wed 06:51:07 PM 39.6222 -87.7217 171° South 419 482 27,000  Level Indianapolis Center
Wed 06:52:09 PM 39.5081 -87.6975 171° South 416 479 27,000  Level Indianapolis Center
Wed 06:53:11 PM 39.3931 -87.6728 171° South 417 480 27,000  Level Indianapolis Center
Wed 06:54:13 PM 39.2578 -87.6450 171° South 417 480 27,000  Level Indianapolis Center
Wed 06:55:15 PM 39.1425 -87.6211 171° South 418 481 27,000  Level Indianapolis Center
Wed 06:56:16 PM 39.0267 -87.5961 170° South 420 483 27,000  Level Indianapolis Center
Wed 06:57:18 PM 38.9111 -87.5708 170° South 420 483 27,000  Level Indianapolis Center
Wed 06:58:20 PM 38.7944 -87.5483 171° South 423 487 27,000  Level Indianapolis Center
Wed 06:59:22 PM 38.6775 -87.5242 171° South 425 489 27,000  Level Indianapolis Center
Wed 07:00:24 PM 38.5600 -87.4989 170° South 427 491 27,000  Level Indianapolis Center
Wed 07:01:26 PM 38.4197 -87.4703 171° South 428 493 27,000  Level Indianapolis Center
Wed 07:02:28 PM 38.3031 -87.4453 170° South 428 493 27,000  Level Indianapolis Center
Wed 07:03:29 PM 38.1850 -87.4225 171° South 432 497 27,000 -65 Level Indianapolis Center
Wed 07:05:33 PM 37.9497 -87.3736 171° South 430 495 26,800 -387 Descending Indianapolis Center
Wed 07:06:35 PM 37.8286 -87.3494 171° South 439 505 25,800 -968 Descending Indianapolis Center
Wed 07:07:37 PM 37.6936 -87.3233 171° South 430 495 24,800 -1,030 Descending Indianapolis Center
Wed 07:08:14 PM 37.6131 -87.3125 174° South 421 484 24,100 -740 Descending Memphis Center
Wed 07:10:03 PM 37.4081 -87.2708 171° South 422 486 23,000 -639 Descending Memphis Center
Wed 07:11:03 PM 37.2886 -87.2417 169° South 422 486 22,300 -942 Descending Memphis Center
Wed 07:12:04 PM 37.1750 -87.2044 165° South 426 490 21,100 -1,131 Descending Memphis Center
Wed 07:13:05 PM 37.0578 -87.1725 168° South 416 479 20,000 -1,041 Descending Memphis Center
Wed 07:14:05 PM 36.9506 -87.1406 167° South 405 466 19,000 -992 Descending Memphis Center
Wed 07:15:06 PM 36.8372 -87.1089 167° South 401 461 18,000 -1,403 Descending Memphis Center
Wed 07:16:09 PM 36.7292 -87.0458 155° Southeast 408 470 16,100 -2,195 Descending Memphis Center
Wed 07:17:09 PM 36.6317 -86.9853 154° Southeast 403 464 13,500 -2,400 Descending Memphis Center
Wed 07:18:09 PM 36.5383 -86.9272 153° Southeast 384 442 11,300 -1,600 Descending Memphis Center
Wed 07:19:09 PM 36.4622 -86.8814 154° Southeast 361 415 10,300 -1,200 Descending Memphis Center
Wed 07:20:09 PM 36.3878 -86.8356 154° Southeast 324 373 8,900 -1,500 Descending Memphis Center
Wed 07:21:09 PM 36.3053 -86.7875 155° Southeast 303 349 7,300 -1,350 Descending Memphis Center
Wed 07:22:09 PM 36.2333 -86.7522 158° South 292 336 6,200 -1,100 Descending Memphis Center
Wed 07:23:09 PM 36.1611 -86.7786 196° South 264 304 5,100 -893 Descending Memphis Center
Wed 07:24:10 PM 36.0928 -86.7994 194° South 264 304 4,400 -900 Descending Memphis Center
Wed 07:25:09 PM 36.0289 -86.8228 196° South 245 282 3,300 -807 Descending Memphis Center
Wed 07:26:09 PM 35.9822 -86.7939 153° Southeast 199 229 2,800 -400 Descending Memphis Center
Wed 07:27:09 PM 35.9722 -86.7406 103° East 159 183 2,500 -150 Descending Memphis Center
Wed 07:28:09 PM 36.0261 -86.7228 15° North 84 97 2,500 -446 Level Memphis Center
Wed 07:29:10 PM 36.0756 -86.7028 18° North 121 139 1,600 -850 Descending Memphis Center
Wed 07:30:09 PM 36.1106 -86.6908 15° North 129 148 800 -454 Descending Memphis Center
Wed 07:31:09 PM 36.1497 -86.6736 20° North 129 148 700 4,100 Descending Memphis Center
Wed 07:32:09 PM 36.1867 -86.6592 18° North 129 148 9,000 8,300 Climbing Memphis Center
Wed 07:34:00 PM 36.1167 -86.6667 191° South  Level FlightAware
Wed 07:41:00 PM 36.1245 -86.6782 191° South  Level Estimated
Wed 07:42:00 PM 36.1245 -86.6782 191° South  Level Estimated
Wed 07:43:00 PM 36.1245 -86.6782 191° South  Level Estimated
Wed 07:44:00 PM 36.1245 -86.6782 191° South  Level Estimated

Login

Don't have an account? Register now (free) for customized features, flight alerts, and more!